Time;durP1;ratioP1;P1;durP2;ratioP2;P2;SDS_P1;SDS_P2;PMS_P1;PMS_P2;Temp;Humidity;BMP_temperature;BMP_pressure;BME280_temperature;BME280_humidity;BME280_pressure;Samples;Min_cycle;Max_cycle;Signal;HPM_P1;HPM_P2
2022/08/19 00:00:15;;;;;;;13.55;11.07;;;24.00;92.10;;;;;;4994556;28;20033;-25
2022/08/19 00:02:41;;;;;;;15.60;10.25;;;24.00;92.10;;;;;;4994849;28;20031;-26
2022/08/19 00:05:08;;;;;;;12.85;10.82;;;24.10;92.10;;;;;;4994620;28;20034;-26
2022/08/19 00:07:34;;;;;;;15.07;10.63;;;24.00;92.10;;;;;;4994600;28;20045;-25
2022/08/19 00:10:00;;;;;;;13.32;10.57;;;24.00;92.10;;;;;;4994341;28;20471;-25
2022/08/19 00:12:26;;;;;;;14.07;11.07;;;24.00;92.10;;;;;;4994529;28;20022;-26
2022/08/19 00:14:53;;;;;;;14.60;11.05;;;24.00;92.10;;;;;;4994362;28;20026;-25
2022/08/19 00:17:20;;;;;;;13.95;10.93;;;24.00;92.10;;;;;;4994648;28;20026;-26
2022/08/19 00:19:45;;;;;;;13.35;10.77;;;24.00;92.10;;;;;;4994087;28;20042;-25
2022/08/19 00:22:11;;;;;;;13.23;11.07;;;24.00;92.20;;;;;;4994083;28;20026;-26
2022/08/19 00:24:38;;;;;;;13.55;11.23;;;24.00;92.20;;;;;;4994663;28;20023;-25
2022/08/19 00:27:04;;;;;;;15.50;11.43;;;24.00;92.20;;;;;;4994347;28;20373;-25
2022/08/19 00:29:30;;;;;;;15.27;11.27;;;23.90;92.20;;;;;;4992823;28;20494;-26
2022/08/19 00:31:59;;;;;;;12.90;11.25;;;23.90;92.20;;;;;;4994236;28;20026;-25
2022/08/19 00:34:27;;;;;;;18.00;11.68;;;23.90;92.20;;;;;;4994079;28;20082;-26
2022/08/19 00:36:53;;;;;;;14.73;11.60;;;23.90;92.60;;;;;;4994077;28;20029;-25
2022/08/19 00:39:19;;;;;;;15.05;11.48;;;23.90;92.30;;;;;;4993770;28;20080;-26
2022/08/19 00:41:48;;;;;;;15.13;11.93;;;23.90;92.40;;;;;;4993873;28;20034;-25
2022/08/19 00:44:23;;;;;;;15.40;11.95;;;23.90;92.60;;;;;;4993808;28;20026;-26
2022/08/19 00:46:51;;;;;;;17.98;12.77;;;23.90;92.80;;;;;;4994016;28;20050;-25
2022/08/19 00:49:35;;;;;;;17.60;12.82;;;24.00;93.00;;;;;;4993656;28;20029;-25
2022/08/19 00:52:08;;;;;;;14.68;12.13;;;23.90;93.10;;;;;;4993772;28;20050;-25
2022/08/19 00:54:36;;;;;;;19.10;12.30;;;23.90;93.20;;;;;;4993611;28;20057;-27
2022/08/19 00:57:07;;;;;;;14.45;12.25;;;23.90;93.30;;;;;;4993725;28;20029;-25
2022/08/19 00:59:36;;;;;;;16.27;12.73;;;23.90;93.30;;;;;;4993563;28;20032;-25
2022/08/19 01:02:02;;;;;;;16.48;11.90;;;23.90;93.30;;;;;;4993487;28;20106;-25
2022/08/19 01:04:27;;;;;;;15.32;11.85;;;23.90;93.30;;;;;;4993466;28;20105;-25
2022/08/19 01:06:53;;;;;;;15.07;12.27;;;23.90;93.20;;;;;;4993328;28;20383;-26
2022/08/19 01:09:19;;;;;;;14.32;11.77;;;23.90;93.20;;;;;;4993306;28;20026;-25
2022/08/19 01:11:45;;;;;;;13.57;12.18;;;23.90;93.10;;;;;;4993255;28;20034;-26
2022/08/19 01:14:13;;;;;;;20.15;12.07;;;23.90;93.10;;;;;;4993433;28;20391;-25
2022/08/19 01:16:40;;;;;;;17.20;11.90;;;23.90;93.10;;;;;;4993501;28;20022;-26
2022/08/19 01:19:24;;;;;;;15.90;12.23;;;23.90;93.10;;;;;;4993041;28;20084;-25
2022/08/19 01:22:00;;;;;;;16.77;12.40;;;23.90;93.00;;;;;;4993265;28;20069;-25
2022/08/19 01:24:26;;;;;;;17.33;12.50;;;23.90;93.00;;;;;;4993344;28;20030;-25
2022/08/19 01:26:51;;;;;;;16.65;12.68;;;23.90;93.00;;;;;;4993325;28;20114;-26
2022/08/19 01:29:17;;;;;;;16.60;12.23;;;23.90;93.00;;;;;;4992882;28;20030;-26
2022/08/19 01:31:43;;;;;;;16.27;12.18;;;23.90;92.90;;;;;;4993000;28;20030;-25
2022/08/19 01:34:10;;;;;;;14.52;12.20;;;23.80;92.90;;;;;;4992951;28;20117;-25
2022/08/19 01:36:41;;;;;;;15.45;12.40;;;23.90;92.90;;;;;;4992989;28;20050;-26
2022/08/19 01:39:19;;;;;;;15.90;12.80;;;23.90;92.80;;;;;;4992423;28;20026;-25
2022/08/19 01:41:45;;;;;;;20.45;12.43;;;23.80;92.80;;;;;;4993017;28;20092;-26
2022/08/19 01:44:11;;;;;;;15.30;12.73;;;23.80;92.80;;;;;;4992861;28;20078;-25
2022/08/19 01:46:38;;;;;;;19.88;12.88;;;23.90;92.90;;;;;;4991498;28;20018;-25
2022/08/19 01:49:05;;;;;;;19.13;11.80;;;23.80;93.00;;;;;;4992833;28;20030;-25
2022/08/19 01:51:31;;;;;;;15.05;12.20;;;23.80;93.00;;;;;;4992784;28;20393;-25
2022/08/19 01:53:58;;;;;;;17.27;12.15;;;23.90;93.20;;;;;;4992877;28;20467;-26
2022/08/19 01:56:24;;;;;;;14.45;12.18;;;23.90;93.30;;;;;;4992780;28;20117;-25
2022/08/19 01:58:57;;;;;;;14.32;12.23;;;23.90;93.40;;;;;;4993066;28;20198;-26
2022/08/19 02:01:23;;;;;;;17.00;13.35;;;23.80;93.40;;;;;;4992894;28;20384;-25
2022/08/19 02:03:49;;;;;;;17.60;12.77;;;23.90;93.50;;;;;;4992890;28;20035;-25
2022/08/19 02:06:16;;;;;;;14.40;11.88;;;23.80;93.50;;;;;;4992797;28;20036;-25
2022/08/19 02:08:45;;;;;;;15.50;12.48;;;23.80;93.50;;;;;;4992620;28;20109;-25
2022/08/19 02:11:19;;;;;;;16.15;12.25;;;23.80;93.50;;;;;;4992728;28;20020;-25
2022/08/19 02:13:45;;;;;;;14.05;12.10;;;23.80;93.40;;;;;;4992680;28;20037;-26
2022/08/19 02:16:11;;;;;;;15.50;12.40;;;23.80;93.40;;;;;;4992535;28;20117;-26
2022/08/19 02:18:36;;;;;;;14.57;12.57;;;23.80;93.40;;;;;;4992252;28;20033;-25
2022/08/19 02:21:02;;;;;;;15.02;12.00;;;23.80;93.40;;;;;;4992558;28;20026;-25
2022/08/19 02:23:28;;;;;;;14.48;12.00;;;23.80;93.40;;;;;;4992408;28;20034;-25
2022/08/19 02:25:53;;;;;;;16.17;12.15;;;23.80;93.40;;;;;;4992615;28;20061;-26
2022/08/19 02:28:19;;;;;;;17.25;12.35;;;23.80;93.40;;;;;;4992377;28;20110;-27
2022/08/19 02:30:46;;;;;;;13.73;12.10;;;23.80;93.30;;;;;;4992359;28;20026;-25
2022/08/19 02:33:12;;;;;;;17.95;12.50;;;23.80;93.30;;;;;;4992376;28;20030;-25
2022/08/19 02:35:45;;;;;;;18.40;12.60;;;23.70;93.30;;;;;;4992421;28;20105;-26
2022/08/19 02:38:26;;;;;;;16.00;12.55;;;23.70;93.30;;;;;;4992378;28;20029;-25
2022/08/19 02:40:58;;;;;;;15.68;12.68;;;23.70;93.20;;;;;;4992470;28;20037;-26
2022/08/19 02:43:26;;;;;;;17.08;12.23;;;23.70;93.30;;;;;;4992408;28;20030;-25
2022/08/19 02:45:52;;;;;;;13.70;11.73;;;23.70;93.20;;;;;;4992498;28;20503;-25
2022/08/19 02:48:20;;;;;;;16.48;12.20;;;23.70;93.20;;;;;;4992360;28;20089;-25
2022/08/19 02:50:48;;;;;;;17.38;12.30;;;23.70;93.20;;;;;;4992374;28;20488;-25
2022/08/19 02:53:13;;;;;;;17.23;13.00;;;23.70;93.20;;;;;;4996015;28;20036;-25
2022/08/19 02:55:44;;;;;;;18.55;13.18;;;23.70;93.20;;;;;;4996096;28;20026;-25
2022/08/19 02:58:10;;;;;;;15.70;12.48;;;23.60;93.20;;;;;;4996026;28;20484;-25
2022/08/19 03:00:35;;;;;;;20.77;12.98;;;23.70;93.30;;;;;;4995655;28;20041;-25
2022/08/19 03:03:01;;;;;;;14.95;12.23;;;23.70;93.30;;;;;;4996063;28;20472;-25
2022/08/19 03:05:27;;;;;;;16.17;12.77;;;23.60;93.20;;;;;;4996045;28;20471;-26
2022/08/19 03:07:53;;;;;;;17.25;12.85;;;23.60;93.30;;;;;;4995840;28;20029;-26
2022/08/19 03:10:19;;;;;;;19.75;12.75;;;23.60;93.30;;;;;;4995583;28;20025;-25
2022/08/19 03:12:45;;;;;;;17.58;12.95;;;23.60;93.30;;;;;;4995808;28;20511;-25
2022/08/19 03:15:11;;;;;;;16.98;12.52;;;23.60;93.40;;;;;;4995754;28;20373;-25
2022/08/19 03:17:37;;;;;;;18.48;13.00;;;23.60;93.40;;;;;;4995625;28;20029;-25
2022/08/19 03:20:04;;;;;;;18.40;13.25;;;23.60;93.40;;;;;;4995283;28;20042;-25
2022/08/19 03:22:29;;;;;;;19.02;13.38;;;23.60;93.40;;;;;;4994275;28;20638;-26
2022/08/19 03:24:55;;;;;;;16.77;13.30;;;23.60;93.40;;;;;;4995500;28;20105;-25
2022/08/19 03:27:22;;;;;;;15.48;12.82;;;23.60;93.40;;;;;;4995443;28;20116;-25
2022/08/19 03:29:47;;;;;;;20.33;13.57;;;23.60;93.40;;;;;;4995318;28;20048;-26
2022/08/19 03:32:13;;;;;;;17.17;12.73;;;23.60;93.40;;;;;;4995263;28;20054;-25
2022/08/19 03:34:39;;;;;;;15.43;12.75;;;23.60;93.40;;;;;;4995725;28;20029;-25
2022/08/19 03:37:07;;;;;;;20.55;13.40;;;23.50;93.50;;;;;;4995305;28;20026;-25
2022/08/19 03:39:35;;;;;;;16.45;13.00;;;23.60;93.50;;;;;;4994978;28;20033;-25
2022/08/19 03:42:02;;;;;;;15.70;13.32;;;23.50;93.40;;;;;;4995184;28;20053;-25
2022/08/19 03:44:29;;;;;;;17.95;13.45;;;23.50;93.50;;;;;;4995191;28;20019;-25
2022/08/19 03:46:57;;;;;;;18.17;13.93;;;23.50;93.50;;;;;;4995163;28;20030;-25
2022/08/19 03:49:26;;;;;;;16.88;13.80;;;23.50;93.50;;;;;;4994656;28;20037;-25
2022/08/19 03:51:53;;;;;;;17.02;13.05;;;23.50;93.50;;;;;;4994942;28;20026;-26
2022/08/19 03:54:22;;;;;;;16.77;13.68;;;23.50;93.50;;;;;;4995140;28;20054;-25
2022/08/19 03:56:50;;;;;;;17.17;13.55;;;23.50;93.50;;;;;;4995018;28;20033;-25
2022/08/19 03:59:30;;;;;;;16.88;13.95;;;23.50;93.50;;;;;;4994706;28;20022;-25
2022/08/19 04:01:58;;;;;;;20.35;13.88;;;23.50;93.50;;;;;;4994594;28;20034;-25
2022/08/19 04:04:25;;;;;;;16.80;14.35;;;23.40;93.50;;;;;;4994960;28;20035;-26
2022/08/19 04:06:51;;;;;;;16.40;14.57;;;23.50;93.60;;;;;;4995047;28;20022;-26
2022/08/19 04:09:18;;;;;;;16.80;14.25;;;23.40;93.60;;;;;;4994622;28;20395;-26
2022/08/19 04:11:53;;;;;;;18.52;13.90;;;23.40;93.60;;;;;;4994529;28;20088;-25
2022/08/19 04:14:21;;;;;;;17.65;13.98;;;23.40;93.60;;;;;;4994528;28;20022;-25
2022/08/19 04:16:48;;;;;;;16.35;14.10;;;23.40;93.60;;;;;;4994424;28;20026;-25
2022/08/19 04:19:15;;;;;;;17.05;14.32;;;23.40;93.70;;;;;;4994132;28;20034;-25
2022/08/19 04:21:44;;;;;;;19.42;15.23;;;23.40;93.70;;;;;;4994370;28;20031;-25
2022/08/19 04:24:11;;;;;;;17.58;14.07;;;23.40;93.60;;;;;;4994305;28;20153;-25
2022/08/19 04:26:38;;;;;;;20.98;14.63;;;23.40;94.00;;;;;;4994191;28;20030;-25
2022/08/19 04:29:18;;;;;;;18.63;15.15;;;23.40;93.60;;;;;;4993766;28;20034;-25
2022/08/19 04:31:45;;;;;;;18.13;14.40;;;23.40;93.60;;;;;;4994072;28;20480;-26
2022/08/19 04:34:12;;;;;;;18.27;14.40;;;23.40;93.60;;;;;;4994127;28;20043;-25
2022/08/19 04:36:41;;;;;;;17.52;14.25;;;23.40;93.60;;;;;;4994085;28;20105;-26
2022/08/19 04:39:14;;;;;;;20.15;15.25;;;23.40;93.60;;;;;;4993717;28;20106;-26
2022/08/19 04:44:25;;;;;;;19.85;14.18;;;23.40;93.60;;;;;;4993921;28;20097;-26
2022/08/19 04:46:51;;;;;;;18.20;14.10;;;23.40;93.60;;;;;;4993789;28;20022;-26
2022/08/19 04:49:19;;;;;;;17.17;14.82;;;23.40;93.60;;;;;;4993614;28;20014;-26
2022/08/19 04:51:49;;;;;;;18.85;14.75;;;23.40;93.60;;;;;;4993904;28;20023;-25
2022/08/19 04:54:17;;;;;;;20.45;14.95;;;23.40;93.60;;;;;;4993969;28;20041;-25
2022/08/19 04:56:43;;;;;;;18.88;15.43;;;23.40;93.70;;;;;;4993851;28;20030;-26
2022/08/19 04:59:10;;;;;;;19.65;14.75;;;23.40;93.70;;;;;;4993666;28;20054;-25
2022/08/19 05:01:36;;;;;;;18.83;15.27;;;23.40;93.70;;;;;;4993603;28;20037;-25
2022/08/19 05:04:04;;;;;;;20.27;15.52;;;23.40;93.70;;;;;;4993697;28;20072;-25
2022/08/19 05:06:33;;;;;;;22.60;15.50;;;23.40;93.70;;;;;;4992270;28;20029;-25
2022/08/19 05:09:00;;;;;;;19.63;14.68;;;23.40;93.80;;;;;;4993340;28;20014;-25
2022/08/19 05:11:28;;;;;;;19.40;14.98;;;23.30;93.70;;;;;;4993448;28;20026;-25
2022/08/19 05:13:55;;;;;;;19.10;15.40;;;23.40;93.80;;;;;;4992920;28;20434;-25
2022/08/19 05:16:23;;;;;;;18.42;15.00;;;23.40;93.80;;;;;;4993167;28;20022;-25
2022/08/19 05:24:19;;;;;;;20.40;15.32;;;23.30;93.90;;;;;;5052555;28;20015;-24
2022/08/19 05:26:51;;;;;;;28.40;15.15;;;23.30;93.90;;;;;;5052907;28;20044;-24
2022/08/19 05:29:22;;;;;;;17.45;14.70;;;23.30;93.90;;;;;;5052511;28;20060;-24
2022/08/19 05:31:49;;;;;;;17.27;14.52;;;23.30;93.90;;;;;;5052521;28;20402;-24
2022/08/19 05:34:16;;;;;;;18.13;14.27;;;23.20;93.90;;;;;;5052589;28;20091;-24
2022/08/19 05:36:44;;;;;;;19.50;15.25;;;23.30;93.90;;;;;;5052337;28;20529;-24
2022/08/19 05:39:14;;;;;;;17.92;14.35;;;23.30;93.90;;;;;;5052167;28;20470;-23
2022/08/19 05:41:46;;;;;;;21.92;14.95;;;23.20;93.90;;;;;;5052128;28;20204;-24
2022/08/19 05:44:13;;;;;;;18.40;15.23;;;23.20;93.90;;;;;;5052253;28;20485;-24
2022/08/19 05:46:40;;;;;;;21.52;16.45;;;23.30;93.90;;;;;;5052221;28;20028;-24
2022/08/19 05:49:06;;;;;;;15.80;13.70;;;23.30;94.00;;;;;;5052169;28;20025;-23
2022/08/19 05:51:35;;;;;;;17.25;14.73;;;23.30;94.00;;;;;;5052346;28;20029;-24
2022/08/19 05:54:01;;;;;;;23.70;15.27;;;23.20;94.00;;;;;;5052537;28;20035;-23
2022/08/19 05:56:29;;;;;;;17.48;13.93;;;23.20;94.00;;;;;;5052353;28;20108;-24
2022/08/19 05:58:54;;;;;;;19.77;15.10;;;23.30;94.00;;;;;;5052479;28;20044;-23
2022/08/19 06:01:21;;;;;;;19.10;14.45;;;23.30;94.00;;;;;;5052254;28;20025;-24
2022/08/19 06:03:47;;;;;;;16.55;14.48;;;23.20;94.00;;;;;;5052287;28;20044;-24
2022/08/19 06:06:15;;;;;;;17.50;15.07;;;23.30;94.00;;;;;;5052248;28;20112;-24
2022/08/19 06:08:42;;;;;;;19.45;14.35;;;23.30;94.00;;;;;;5052528;28;20517;-24
2022/08/19 06:11:15;;;;;;;21.30;14.40;;;23.20;93.90;;;;;;5052185;28;20053;-24
2022/08/19 06:13:42;;;;;;;22.40;14.27;;;23.20;93.90;;;;;;5052324;28;20494;-23
2022/08/19 06:16:07;;;;;;;18.98;14.20;;;23.20;94.00;;;;;;5034227;28;20087;-23
2022/08/19 06:18:33;;;;;;;20.42;14.50;;;23.20;94.00;;;;;;5052208;28;20025;-23
2022/08/19 06:21:00;;;;;;;18.30;13.57;;;23.20;94.00;;;;;;5033819;28;20036;-23
2022/08/19 06:23:25;;;;;;;16.27;14.23;;;23.20;94.00;;;;;;5051988;28;20064;-24
2022/08/19 06:25:51;;;;;;;20.15;15.88;;;23.20;94.00;;;;;;5053406;28;20041;-24
2022/08/19 06:28:17;;;;;;;19.13;14.85;;;23.20;93.90;;;;;;5055742;28;20017;-24
2022/08/19 06:30:43;;;;;;;17.33;14.38;;;23.20;93.90;;;;;;5055442;28;20025;-23
2022/08/19 06:33:08;;;;;;;24.13;14.93;;;23.20;93.90;;;;;;5055836;28;20103;-24
2022/08/19 06:35:39;;;;;;;21.10;14.82;;;23.20;93.90;;;;;;5055975;28;20035;-24
2022/08/19 06:38:05;;;;;;;17.60;14.55;;;23.20;93.90;;;;;;5055739;28;20435;-24
2022/08/19 06:40:31;;;;;;;20.27;15.20;;;23.20;94.00;;;;;;5055520;28;20025;-24
2022/08/19 06:42:58;;;;;;;19.08;14.98;;;23.20;94.00;;;;;;5037614;28;20095;-24
2022/08/19 06:45:24;;;;;;;15.50;13.68;;;23.20;94.00;;;;;;5055407;28;20017;-24
2022/08/19 06:47:49;;;;;;;20.05;14.77;;;23.20;94.00;;;;;;5055480;28;20035;-24
2022/08/19 06:50:15;;;;;;;15.93;14.23;;;23.20;94.00;;;;;;5055312;28;20048;-24
2022/08/19 06:52:41;;;;;;;16.13;13.07;;;23.20;94.00;;;;;;5055477;28;20048;-24
2022/08/19 06:55:07;;;;;;;17.05;13.40;;;23.20;94.00;;;;;;5055453;28;20037;-24
2022/08/19 06:57:33;;;;;;;15.85;13.18;;;23.20;93.90;;;;;;5055619;28;20025;-24
2022/08/19 06:59:59;;;;;;;17.60;13.95;;;23.20;94.00;;;;;;5037526;28;20028;-24
2022/08/19 07:02:26;;;;;;;14.90;12.38;;;23.20;94.00;;;;;;5055481;28;20104;-23
2022/08/19 07:04:52;;;;;;;14.75;12.93;;;23.20;94.00;;;;;;5056353;28;20079;-23
2022/08/19 07:07:20;;;;;;;15.65;11.85;;;23.20;94.00;;;;;;5056219;28;20458;-24
2022/08/19 07:09:46;;;;;;;18.40;12.65;;;23.20;94.00;;;;;;5055632;28;20541;-23
2022/08/19 07:12:16;;;;;;;14.35;12.15;;;23.20;94.00;;;;;;5056098;28;20025;-24
2022/08/19 07:14:42;;;;;;;15.68;11.88;;;23.20;94.10;;;;;;5058084;28;20017;-23
2022/08/19 07:17:11;;;;;;;16.67;12.35;;;23.20;94.10;;;;;;5060629;28;20025;-24
2022/08/19 07:19:38;;;;;;;15.50;11.73;;;23.20;94.10;;;;;;5055468;28;20021;-23
2022/08/19 07:22:06;;;;;;;14.85;11.27;;;23.20;94.10;;;;;;5055388;28;20021;-24
2022/08/19 07:24:32;;;;;;;12.57;11.07;;;23.20;94.10;;;;;;5055532;28;20021;-23
2022/08/19 07:27:02;;;;;;;14.23;11.15;;;23.20;94.10;;;;;;5055825;28;20114;-24
2022/08/19 07:29:29;;;;;;;14.43;11.40;;;23.20;94.10;;;;;;5056163;28;20096;-24
2022/08/19 07:31:56;;;;;;;17.05;12.25;;;23.20;94.10;;;;;;5055000;28;20466;-24
2022/08/19 07:34:23;;;;;;;18.88;11.52;;;23.10;94.10;;;;;;5055011;28;20025;-24
2022/08/19 07:36:50;;;;;;;14.45;10.93;;;23.10;94.10;;;;;;5054414;28;20025;-24
2022/08/19 07:39:29;;;;;;;16.88;10.80;;;23.20;94.10;;;;;;5036691;28;20021;-24
2022/08/19 07:41:57;;;;;;;15.90;10.07;;;23.20;93.90;;;;;;5055261;28;20026;-23
2022/08/19 07:44:23;;;;;;;11.93;9.13;;;23.30;93.80;;;;;;5055337;28;20371;-24
2022/08/19 07:46:53;;;;;;;14.10;10.25;;;23.40;93.80;;;;;;5055816;28;20135;-23
2022/08/19 07:49:20;;;;;;;10.45;9.05;;;23.40;93.70;;;;;;5037310;28;20033;-23
2022/08/19 07:51:52;;;;;;;11.88;10.05;;;23.40;93.60;;;;;;5037236;28;20021;-24
2022/08/19 07:54:19;;;;;;;16.63;12.52;;;23.40;93.60;;;;;;5054659;28;20494;-23
2022/08/19 07:56:45;;;;;;;14.20;10.95;;;23.30;93.90;;;;;;5055275;28;20028;-23
2022/08/19 07:59:11;;;;;;;13.60;10.80;;;23.20;94.10;;;;;;5054895;28;20021;-24
2022/08/19 08:01:39;;;;;;;15.70;9.93;;;23.20;94.10;;;;;;5055404;28;20029;-23
2022/08/19 08:09:40;;;;;;;11.68;9.48;;;23.40;93.90;;;;;;5054789;28;20048;-23
2022/08/19 08:12:11;;;;;;;10.95;9.15;;;23.40;93.90;;;;;;5036571;28;20070;-23
2022/08/19 08:14:47;;;;;;;12.15;9.43;;;23.40;93.80;;;;;;5054560;28;20375;-23
2022/08/19 08:17:15;;;;;;;11.73;9.27;;;23.50;93.80;;;;;;5054726;28;20027;-23
2022/08/19 08:19:42;;;;;;;10.75;9.45;;;23.50;93.80;;;;;;5035741;28;20028;-23
2022/08/19 08:23:21;;;;;;;11.35;9.15;;;23.50;93.70;;;;;;5054439;28;20048;-23
2022/08/19 08:24:54;;;;;;;11.23;8.75;;;23.50;93.70;;;;;;5054180;28;20053;-23
2022/08/19 08:27:20;;;;;;;10.02;8.52;;;23.60;93.70;;;;;;5054115;28;20390;-23
2022/08/19 08:29:45;;;;;;;11.30;8.52;;;23.60;93.70;;;;;;5053670;28;20091;-24
2022/08/19 08:32:11;;;;;;;12.75;8.68;;;23.60;93.70;;;;;;5054197;28;20033;-24
2022/08/19 08:34:37;;;;;;;10.93;8.55;;;23.60;93.70;;;;;;5053724;28;20040;-24
2022/08/19 08:37:03;;;;;;;9.35;8.18;;;23.60;93.70;;;;;;5053816;28;20032;-23
2022/08/19 08:39:29;;;;;;;9.70;8.75;;;23.60;93.70;;;;;;5053788;28;20021;-23
2022/08/19 08:42:16;;;;;;;10.20;8.00;;;23.60;93.70;;;;;;5053798;28;20051;-23
2022/08/19 08:44:58;;;;;;;9.35;8.07;;;23.60;93.60;;;;;;5053946;28;20033;-23
2022/08/19 08:47:28;;;;;;;9.27;8.38;;;23.60;93.70;;;;;;5053904;28;20025;-23
2022/08/19 08:49:55;;;;;;;9.65;8.20;;;23.60;93.70;;;;;;5034623;28;21656;-24
2022/08/19 08:52:23;;;;;;;9.57;8.32;;;23.60;93.60;;;;;;5053226;28;20152;-24
2022/08/19 08:54:52;;;;;;;9.25;8.07;;;23.60;93.60;;;;;;5053478;28;20120;-23
2022/08/19 08:57:36;;;;;;;13.25;8.65;;;23.60;93.60;;;;;;5053483;28;20021;-23
2022/08/19 09:00:08;;;;;;;9.43;7.80;;;23.60;93.60;;;;;;5035154;28;20025;-24
2022/08/19 09:02:33;;;;;;;8.48;7.38;;;23.60;93.60;;;;;;5053204;28;20490;-24
2022/08/19 09:04:59;;;;;;;11.90;8.63;;;23.60;93.60;;;;;;5053302;28;20032;-24
2022/08/19 09:07:34;;;;;;;9.20;8.27;;;23.70;93.60;;;;;;5053193;28;20485;-23
2022/08/19 09:10:16;;;;;;;8.60;7.80;;;23.70;93.60;;;;;;5052983;28;20021;-23
2022/08/19 09:13:03;;;;;;;8.88;7.90;;;23.70;93.60;;;;;;5053168;28;20536;-23
2022/08/19 09:15:34;;;;;;;9.90;8.07;;;23.70;93.60;;;;;;5052917;28;20075;-24
2022/08/19 09:18:02;;;;;;;8.77;7.88;;;23.70;93.60;;;;;;5052673;28;20037;-23
2022/08/19 09:20:28;;;;;;;8.77;7.88;;;23.70;93.60;;;;;;5034431;28;20060;-23
2022/08/19 09:22:54;;;;;;;9.75;7.63;;;23.70;93.60;;;;;;5034725;28;20067;-24
2022/08/19 09:25:22;;;;;;;8.52;7.65;;;23.70;93.60;;;;;;5052635;28;20028;-23
2022/08/19 09:27:49;;;;;;;8.80;7.72;;;23.70;93.60;;;;;;5052236;28;20412;-23
2022/08/19 09:30:26;;;;;;;8.52;7.68;;;23.70;93.60;;;;;;5052594;28;20519;-24
2022/08/19 09:32:53;;;;;;;10.23;7.50;;;23.60;93.60;;;;;;5052422;28;20402;-23
2022/08/19 09:35:21;;;;;;;8.55;7.63;;;23.70;93.60;;;;;;5052403;28;20025;-24
2022/08/19 09:37:49;;;;;;;8.27;7.47;;;23.70;93.60;;;;;;5052512;28;20037;-23
2022/08/19 09:40:15;;;;;;;8.68;7.65;;;23.70;93.60;;;;;;5051994;28;20036;-23
2022/08/19 09:42:43;;;;;;;9.15;7.85;;;23.70;93.60;;;;;;5034863;28;20120;-23
2022/08/19 09:45:09;;;;;;;9.55;7.70;;;23.70;93.60;;;;;;5052719;28;20615;-23
2022/08/19 09:47:37;;;;;;;8.45;7.28;;;23.70;93.60;;;;;;5034661;28;20021;-23
2022/08/19 09:50:06;;;;;;;8.30;7.50;;;23.70;93.60;;;;;;5052214;28;20103;-23
2022/08/19 09:52:33;;;;;;;9.80;7.93;;;23.70;93.60;;;;;;5052958;28;20023;-23
2022/08/19 09:54:59;;;;;;;8.30;7.30;;;23.70;93.60;;;;;;5052324;28;20482;-23
2022/08/19 09:57:24;;;;;;;9.95;7.80;;;23.70;93.60;;;;;;5052844;28;20033;-23
2022/08/19 09:59:50;;;;;;;8.52;7.60;;;23.70;93.60;;;;;;5052116;28;20024;-23
2022/08/19 10:02:15;;;;;;;8.20;7.40;;;23.70;93.60;;;;;;5052652;28;20108;-23
2022/08/19 10:07:25;;;;;;;9.02;8.13;;;23.70;93.60;;;;;;5052371;28;20247;-23
2022/08/19 10:09:51;;;;;;;9.88;7.90;;;23.70;93.60;;;;;;5052010;28;20108;-23
2022/08/19 10:12:17;;;;;;;8.88;7.97;;;23.70;93.60;;;;;;5052260;28;20025;-24
2022/08/19 10:14:43;;;;;;;8.63;7.82;;;23.70;93.60;;;;;;5052202;28;20033;-23
2022/08/19 10:17:08;;;;;;;8.23;7.43;;;23.70;93.90;;;;;;5052365;28;20028;-23
2022/08/19 10:19:35;;;;;;;8.57;7.57;;;23.70;93.60;;;;;;5052264;28;20025;-23
2022/08/19 10:22:06;;;;;;;9.65;7.25;;;23.70;93.60;;;;;;5051814;28;20090;-23
2022/08/19 10:24:33;;;;;;;8.20;7.07;;;23.70;93.50;;;;;;5052821;28;20028;-23
2022/08/19 10:27:00;;;;;;;8.02;7.22;;;23.70;93.50;;;;;;5053210;28;20152;-23
2022/08/19 10:29:28;;;;;;;8.15;7.35;;;23.80;93.60;;;;;;5052156;28;20021;-23
2022/08/19 10:31:54;;;;;;;8.13;7.32;;;23.80;93.60;;;;;;5052325;28;20386;-24
2022/08/19 10:34:19;;;;;;;8.55;7.65;;;23.70;93.50;;;;;;5051451;28;20021;-24
2022/08/19 10:36:45;;;;;;;9.48;6.97;;;23.70;93.60;;;;;;5051505;28;20147;-24
2022/08/19 10:39:12;;;;;;;7.40;6.70;;;23.70;93.50;;;;;;5052749;28;20025;-23
2022/08/19 10:41:39;;;;;;;8.70;7.80;;;23.70;93.50;;;;;;5055591;28;20100;-23
2022/08/19 10:44:08;;;;;;;8.85;7.57;;;23.70;93.50;;;;;;5034645;28;20032;-23
2022/08/19 10:46:37;;;;;;;8.32;7.47;;;23.70;93.50;;;;;;5051884;28;20025;-24
2022/08/19 10:49:04;;;;;;;7.40;6.57;;;23.70;93.50;;;;;;5051284;28;20025;-24
2022/08/19 10:54:16;;;;;;;8.30;7.22;;;23.70;93.50;;;;;;5051690;28;20079;-24
2022/08/19 10:56:51;;;;;;;8.70;7.30;;;23.70;93.40;;;;;;5033733;28;20036;-24
2022/08/19 10:59:28;;;;;;;7.97;7.13;;;23.70;93.50;;;;;;5051452;28;20040;-24
2022/08/19 11:02:01;;;;;;;8.75;6.78;;;23.70;93.40;;;;;;5051869;28;20049;-24
2022/08/19 11:04:28;;;;;;;7.90;7.10;;;23.70;93.40;;;;;;5033662;28;20091;-24
2022/08/19 11:06:53;;;;;;;7.57;6.40;;;23.70;93.40;;;;;;5051561;28;20442;-24
2022/08/19 11:09:26;;;;;;;9.13;7.28;;;23.70;93.40;;;;;;5051364;28;20449;-24
2022/08/19 11:11:53;;;;;;;7.50;6.72;;;23.70;93.40;;;;;;5051698;28;20017;-24
2022/08/19 11:14:20;;;;;;;7.70;6.88;;;23.70;93.40;;;;;;5054760;28;20039;-24
2022/08/19 11:16:47;;;;;;;7.75;6.95;;;23.70;93.40;;;;;;5055114;28;20025;-24
2022/08/19 11:19:15;;;;;;;8.38;5.95;;;23.70;93.40;;;;;;5055074;28;20397;-24
2022/08/19 11:21:44;;;;;;;8.32;7.13;;;23.70;93.30;;;;;;5055294;28;20082;-24
2022/08/19 11:24:14;;;;;;;7.80;6.53;;;23.70;93.30;;;;;;5036976;28;20032;-24
2022/08/19 11:26:41;;;;;;;7.47;6.60;;;23.70;93.30;;;;;;5055544;28;20025;-23
2022/08/19 11:29:13;;;;;;;7.63;6.93;;;23.80;93.30;;;;;;5055583;28;20040;-24
2022/08/19 11:31:41;;;;;;;7.00;6.30;;;23.80;93.30;;;;;;5055711;28;20033;-24
2022/08/19 11:34:11;;;;;;;8.15;6.25;;;23.80;93.30;;;;;;5055590;28;20112;-23
2022/08/19 11:36:38;;;;;;;7.47;6.40;;;23.70;93.30;;;;;;5055096;28;20036;-23
2022/08/19 11:39:08;;;;;;;8.38;6.32;;;23.80;93.30;;;;;;5054421;28;20029;-24
2022/08/19 11:41:34;;;;;;;7.50;6.60;;;23.80;93.30;;;;;;5054535;28;20036;-24
2022/08/19 11:44:00;;;;;;;6.72;5.88;;;23.80;93.20;;;;;;5036579;28;20084;-24
2022/08/19 11:46:29;;;;;;;6.55;5.93;;;23.80;93.20;;;;;;5054508;28;20021;-24
2022/08/19 11:48:56;;;;;;;7.50;6.32;;;23.80;93.20;;;;;;5054456;28;20074;-24
2022/08/19 11:51:24;;;;;;;12.00;6.07;;;23.70;93.10;;;;;;5036256;28;20078;-24
2022/08/19 11:53:51;;;;;;;10.75;5.93;;;23.70;93.10;;;;;;5054298;28;20519;-24
2022/08/19 11:56:18;;;;;;;12.02;5.88;;;23.60;93.20;;;;;;5054345;28;20032;-24
2022/08/19 11:58:44;;;;;;;7.68;5.63;;;23.60;93.20;;;;;;5054080;28;20107;-24
2022/08/19 12:01:12;;;;;;;12.02;5.68;;;23.60;93.20;;;;;;5054310;28;20108;-24
2022/08/19 12:03:38;;;;;;;12.95;5.57;;;23.60;93.30;;;;;;5054406;28;20129;-24
2022/08/19 12:06:11;;;;;;;12.70;6.05;;;23.70;93.10;;;;;;5054118;28;20482;-24
2022/08/19 12:08:38;;;;;;;7.57;5.57;;;23.70;93.10;;;;;;5054154;28;20032;-24
2022/08/19 12:11:05;;;;;;;8.55;5.05;;;23.70;93.10;;;;;;5054234;28;20029;-24
2022/08/19 12:13:31;;;;;;;10.00;5.40;;;23.70;93.10;;;;;;5036590;28;20032;-24
2022/08/19 12:15:58;;;;;;;6.82;5.40;;;23.70;93.10;;;;;;5054546;28;20029;-24
2022/08/19 12:18:24;;;;;;;8.85;5.65;;;23.70;93.10;;;;;;5054825;28;20032;-24
2022/08/19 12:20:51;;;;;;;15.98;5.20;;;23.70;93.00;;;;;;5054017;28;20033;-24
2022/08/19 12:23:18;;;;;;;9.18;5.22;;;23.70;93.00;;;;;;5053951;28;20403;-24
2022/08/19 12:25:49;;;;;;;8.00;4.93;;;23.70;93.00;;;;;;5036297;28;20461;-24
2022/08/19 12:28:16;;;;;;;9.77;5.35;;;23.70;92.90;;;;;;5054605;28;20119;-24
2022/08/19 12:30:42;;;;;;;6.18;5.57;;;23.70;92.90;;;;;;5054271;28;20029;-24
2022/08/19 12:33:08;;;;;;;8.52;4.97;;;23.70;92.90;;;;;;5054691;28;20059;-23
2022/08/19 12:35:34;;;;;;;9.60;5.05;;;23.70;92.70;;;;;;5036720;28;20029;-23
2022/08/19 12:38:01;;;;;;;7.72;4.95;;;23.80;92.80;;;;;;5054606;28;20025;-24
2022/08/19 12:40:27;;;;;;;8.80;5.18;;;23.70;92.70;;;;;;5054087;28;20021;-24
2022/08/19 12:42:53;;;;;;;7.25;5.00;;;23.80;92.70;;;;;;5053786;28;20384;-24
2022/08/19 12:45:19;;;;;;;5.00;4.13;;;23.80;92.60;;;;;;5053351;28;20398;-25
2022/08/19 12:47:46;;;;;;;5.93;4.68;;;23.90;92.60;;;;;;5053498;28;20513;-24
2022/08/19 12:50:11;;;;;;;5.57;4.45;;;23.90;92.50;;;;;;5052928;28;20049;-24
2022/08/19 12:52:37;;;;;;;5.43;4.50;;;23.80;92.40;;;;;;5035387;28;20048;-24
2022/08/19 12:55:06;;;;;;;4.35;3.90;;;23.80;92.30;;;;;;5053500;28;20642;-24